sensor_id;sensor_type;location;lat;lon;timestamp;P1;durP1;ratioP1;P2;durP2;ratioP2
15451;SDS011;7827;53.594;9.938;2023-04-24T00:02:00;11.95;;;10.77;;
15451;SDS011;7827;53.594;9.938;2023-04-24T00:04:29;12.35;;;10.90;;
15451;SDS011;7827;53.594;9.938;2023-04-24T00:06:58;11.77;;;10.57;;
15451;SDS011;7827;53.594;9.938;2023-04-24T00:09:26;12.02;;;10.85;;
15451;SDS011;7827;53.594;9.938;2023-04-24T00:11:56;12.02;;;10.93;;
15451;SDS011;7827;53.594;9.938;2023-04-24T00:14:24;11.57;;;10.32;;
15451;SDS011;7827;53.594;9.938;2023-04-24T00:16:53;12.50;;;11.23;;
15451;SDS011;7827;53.594;9.938;2023-04-24T00:19:21;13.35;;;10.75;;
15451;SDS011;7827;53.594;9.938;2023-04-24T00:21:49;12.60;;;11.27;;
15451;SDS011;7827;53.594;9.938;2023-04-24T00:24:18;12.50;;;10.88;;
15451;SDS011;7827;53.594;9.938;2023-04-24T00:26:46;13.05;;;11.00;;
15451;SDS011;7827;53.594;9.938;2023-04-24T00:29:16;12.20;;;10.90;;
15451;SDS011;7827;53.594;9.938;2023-04-24T00:31:45;12.20;;;10.73;;
15451;SDS011;7827;53.594;9.938;2023-04-24T00:34:13;11.40;;;10.25;;
15451;SDS011;7827;53.594;9.938;2023-04-24T00:36:41;11.23;;;10.20;;
15451;SDS011;7827;53.594;9.938;2023-04-24T00:39:09;14.85;;;10.70;;
15451;SDS011;7827;53.594;9.938;2023-04-24T00:41:38;11.98;;;10.82;;
15451;SDS011;7827;53.594;9.938;2023-04-24T00:44:06;11.35;;;10.25;;
15451;SDS011;7827;53.594;9.938;2023-04-24T00:46:36;12.30;;;11.10;;
15451;SDS011;7827;53.594;9.938;2023-04-24T00:49:05;10.93;;;9.90;;
15451;SDS011;7827;53.594;9.938;2023-04-24T00:51:34;14.95;;;10.52;;
15451;SDS011;7827;53.594;9.938;2023-04-24T00:54:03;10.68;;;9.57;;
15451;SDS011;7827;53.594;9.938;2023-04-24T00:56:31;11.93;;;10.52;;
15451;SDS011;7827;53.594;9.938;2023-04-24T00:59:00;12.35;;;10.60;;
15451;SDS011;7827;53.594;9.938;2023-04-24T01:01:29;13.27;;;9.93;;
15451;SDS011;7827;53.594;9.938;2023-04-24T01:04:00;10.98;;;9.98;;
15451;SDS011;7827;53.594;9.938;2023-04-24T01:06:30;10.48;;;9.45;;
15451;SDS011;7827;53.594;9.938;2023-04-24T01:08:59;10.75;;;9.77;;
15451;SDS011;7827;53.594;9.938;2023-04-24T01:11:29;11.18;;;10.00;;
15451;SDS011;7827;53.594;9.938;2023-04-24T01:13:58;11.20;;;10.10;;
15451;SDS011;7827;53.594;9.938;2023-04-24T01:16:27;11.23;;;10.13;;
15451;SDS011;7827;53.594;9.938;2023-04-24T01:18:55;10.57;;;9.57;;
15451;SDS011;7827;53.594;9.938;2023-04-24T01:21:26;10.43;;;9.43;;
15451;SDS011;7827;53.594;9.938;2023-04-24T01:23:59;10.13;;;9.15;;
15451;SDS011;7827;53.594;9.938;2023-04-24T01:26:27;9.88;;;8.88;;
15451;SDS011;7827;53.594;9.938;2023-04-24T01:28:56;11.10;;;8.30;;
15451;SDS011;7827;53.594;9.938;2023-04-24T01:31:24;10.32;;;8.93;;
15451;SDS011;7827;53.594;9.938;2023-04-24T01:33:53;9.48;;;8.50;;
15451;SDS011;7827;53.594;9.938;2023-04-24T01:36:23;8.90;;;8.00;;
15451;SDS011;7827;53.594;9.938;2023-04-24T01:38:54;9.82;;;8.82;;
15451;SDS011;7827;53.594;9.938;2023-04-24T01:41:26;8.77;;;7.88;;
15451;SDS011;7827;53.594;9.938;2023-04-24T01:43:55;8.05;;;7.22;;
15451;SDS011;7827;53.594;9.938;2023-04-24T01:46:25;9.13;;;7.78;;
15451;SDS011;7827;53.594;9.938;2023-04-24T01:48:56;9.32;;;7.40;;
15451;SDS011;7827;53.594;9.938;2023-04-24T01:51:28;7.00;;;6.30;;
15451;SDS011;7827;53.594;9.938;2023-04-24T01:53:56;7.47;;;6.50;;
15451;SDS011;7827;53.594;9.938;2023-04-24T01:56:26;8.48;;;5.97;;
15451;SDS011;7827;53.594;9.938;2023-04-24T01:58:57;7.60;;;6.07;;
15451;SDS011;7827;53.594;9.938;2023-04-24T02:01:27;5.97;;;5.13;;
15451;SDS011;7827;53.594;9.938;2023-04-24T02:04:02;5.78;;;4.85;;
15451;SDS011;7827;53.594;9.938;2023-04-24T02:06:31;5.45;;;4.80;;
15451;SDS011;7827;53.594;9.938;2023-04-24T02:08:59;4.85;;;4.30;;
15451;SDS011;7827;53.594;9.938;2023-04-24T02:11:29;5.10;;;4.38;;
15451;SDS011;7827;53.594;9.938;2023-04-24T02:13:58;4.43;;;3.88;;
15451;SDS011;7827;53.594;9.938;2023-04-24T02:16:26;4.15;;;3.72;;
15451;SDS011;7827;53.594;9.938;2023-04-24T02:18:58;4.28;;;3.75;;
15451;SDS011;7827;53.594;9.938;2023-04-24T02:21:26;3.85;;;3.08;;
15451;SDS011;7827;53.594;9.938;2023-04-24T02:23:55;3.65;;;3.35;;
15451;SDS011;7827;53.594;9.938;2023-04-24T02:26:23;3.50;;;3.20;;
15451;SDS011;7827;53.594;9.938;2023-04-24T02:28:53;4.57;;;3.30;;
15451;SDS011;7827;53.594;9.938;2023-04-24T02:31:21;5.25;;;3.30;;
15451;SDS011;7827;53.594;9.938;2023-04-24T02:33:49;3.08;;;2.70;;
15451;SDS011;7827;53.594;9.938;2023-04-24T02:36:18;3.13;;;2.78;;
15451;SDS011;7827;53.594;9.938;2023-04-24T02:38:47;3.85;;;2.95;;
15451;SDS011;7827;53.594;9.938;2023-04-24T02:41:15;3.42;;;3.08;;
15451;SDS011;7827;53.594;9.938;2023-04-24T02:43:44;4.93;;;3.10;;
15451;SDS011;7827;53.594;9.938;2023-04-24T02:46:13;5.00;;;3.80;;
15451;SDS011;7827;53.594;9.938;2023-04-24T02:48:42;5.28;;;3.92;;
15451;SDS011;7827;53.594;9.938;2023-04-24T02:51:10;5.35;;;3.92;;
15451;SDS011;7827;53.594;9.938;2023-04-24T02:53:38;4.22;;;3.80;;
15451;SDS011;7827;53.594;9.938;2023-04-24T02:56:07;4.18;;;3.70;;
15451;SDS011;7827;53.594;9.938;2023-04-24T02:58:38;5.05;;;3.50;;
15451;SDS011;7827;53.594;9.938;2023-04-24T03:01:06;6.20;;;3.70;;
15451;SDS011;7827;53.594;9.938;2023-04-24T03:03:37;4.15;;;3.63;;
15451;SDS011;7827;53.594;9.938;2023-04-24T03:06:06;6.10;;;3.92;;
15451;SDS011;7827;53.594;9.938;2023-04-24T03:08:35;4.28;;;3.88;;
15451;SDS011;7827;53.594;9.938;2023-04-24T03:11:04;5.03;;;4.00;;
15451;SDS011;7827;53.594;9.938;2023-04-24T03:13:32;4.05;;;3.60;;
15451;SDS011;7827;53.594;9.938;2023-04-24T03:16:00;4.78;;;3.75;;
15451;SDS011;7827;53.594;9.938;2023-04-24T03:18:29;5.32;;;3.60;;
15451;SDS011;7827;53.594;9.938;2023-04-24T03:20:59;5.03;;;3.80;;
15451;SDS011;7827;53.594;9.938;2023-04-24T03:23:28;4.20;;;3.80;;
15451;SDS011;7827;53.594;9.938;2023-04-24T03:25:57;4.78;;;3.20;;
15451;SDS011;7827;53.594;9.938;2023-04-24T03:28:25;4.15;;;3.75;;
15451;SDS011;7827;53.594;9.938;2023-04-24T03:30:58;3.65;;;3.35;;
15451;SDS011;7827;53.594;9.938;2023-04-24T03:33:30;4.32;;;3.92;;
15451;SDS011;7827;53.594;9.938;2023-04-24T03:36:01;3.78;;;3.47;;
15451;SDS011;7827;53.594;9.938;2023-04-24T03:38:37;4.00;;;3.60;;
15451;SDS011;7827;53.594;9.938;2023-04-24T03:41:22;4.00;;;3.60;;
15451;SDS011;7827;53.594;9.938;2023-04-24T03:43:55;5.53;;;3.40;;
15451;SDS011;7827;53.594;9.938;2023-04-24T03:46:24;4.75;;;3.60;;
15451;SDS011;7827;53.594;9.938;2023-04-24T03:48:57;3.88;;;3.30;;
15451;SDS011;7827;53.594;9.938;2023-04-24T03:51:30;3.30;;;3.00;;
15451;SDS011;7827;53.594;9.938;2023-04-24T03:54:10;3.22;;;2.92;;
15451;SDS011;7827;53.594;9.938;2023-04-24T03:56:39;3.20;;;2.90;;
15451;SDS011;7827;53.594;9.938;2023-04-24T03:59:07;4.05;;;3.10;;
15451;SDS011;7827;53.594;9.938;2023-04-24T04:01:36;3.28;;;2.97;;
15451;SDS011;7827;53.594;9.938;2023-04-24T04:04:13;2.80;;;2.60;;
15451;SDS011;7827;53.594;9.938;2023-04-24T04:06:44;3.20;;;2.90;;
15451;SDS011;7827;53.594;9.938;2023-04-24T04:09:13;3.53;;;2.90;;
15451;SDS011;7827;53.594;9.938;2023-04-24T04:11:42;2.95;;;2.63;;
15451;SDS011;7827;53.594;9.938;2023-04-24T04:14:11;3.55;;;2.70;;
15451;SDS011;7827;53.594;9.938;2023-04-24T04:16:43;2.90;;;2.70;;
15451;SDS011;7827;53.594;9.938;2023-04-24T04:19:11;3.35;;;2.90;;
15451;SDS011;7827;53.594;9.938;2023-04-24T04:21:40;3.70;;;3.03;;
15451;SDS011;7827;53.594;9.938;2023-04-24T04:24:19;3.10;;;2.80;;
15451;SDS011;7827;53.594;9.938;2023-04-24T04:26:48;4.32;;;2.90;;
15451;SDS011;7827;53.594;9.938;2023-04-24T04:29:23;3.10;;;2.80;;
15451;SDS011;7827;53.594;9.938;2023-04-24T04:31:52;2.83;;;2.63;;
15451;SDS011;7827;53.594;9.938;2023-04-24T04:34:21;4.00;;;2.80;;
15451;SDS011;7827;53.594;9.938;2023-04-24T04:36:50;2.90;;;2.60;;
15451;SDS011;7827;53.594;9.938;2023-04-24T04:39:38;4.72;;;2.90;;
15451;SDS011;7827;53.594;9.938;2023-04-24T04:42:11;3.20;;;2.40;;
15451;SDS011;7827;53.594;9.938;2023-04-24T04:44:42;6.10;;;2.80;;
15451;SDS011;7827;53.594;9.938;2023-04-24T04:47:16;2.97;;;2.50;;
15451;SDS011;7827;53.594;9.938;2023-04-24T04:49:45;3.95;;;2.40;;
15451;SDS011;7827;53.594;9.938;2023-04-24T04:52:18;2.30;;;2.13;;
15451;SDS011;7827;53.594;9.938;2023-04-24T04:54:52;2.47;;;2.28;;
15451;SDS011;7827;53.594;9.938;2023-04-24T04:57:24;2.60;;;2.30;;
15451;SDS011;7827;53.594;9.938;2023-04-24T04:59:53;2.67;;;2.35;;
15451;SDS011;7827;53.594;9.938;2023-04-24T05:02:35;3.45;;;2.60;;
15451;SDS011;7827;53.594;9.938;2023-04-24T05:05:04;2.72;;;2.53;;
15451;SDS011;7827;53.594;9.938;2023-04-24T05:07:33;2.40;;;2.20;;
15451;SDS011;7827;53.594;9.938;2023-04-24T05:10:05;2.50;;;2.30;;
15451;SDS011;7827;53.594;9.938;2023-04-24T05:12:35;2.70;;;2.22;;
15451;SDS011;7827;53.594;9.938;2023-04-24T05:15:03;3.10;;;2.80;;
15451;SDS011;7827;53.594;9.938;2023-04-24T05:17:33;3.15;;;2.78;;
15451;SDS011;7827;53.594;9.938;2023-04-24T05:20:02;5.68;;;3.00;;
15451;SDS011;7827;53.594;9.938;2023-04-24T05:22:33;4.18;;;3.20;;
15451;SDS011;7827;53.594;9.938;2023-04-24T05:25:02;4.72;;;3.15;;
15451;SDS011;7827;53.594;9.938;2023-04-24T05:27:53;4.05;;;2.88;;
15451;SDS011;7827;53.594;9.938;2023-04-24T05:30:22;5.68;;;3.30;;
15451;SDS011;7827;53.594;9.938;2023-04-24T05:32:51;5.30;;;3.10;;
15451;SDS011;7827;53.594;9.938;2023-04-24T05:35:19;3.47;;;2.72;;
15451;SDS011;7827;53.594;9.938;2023-04-24T05:37:47;3.55;;;2.72;;
15451;SDS011;7827;53.594;9.938;2023-04-24T05:40:18;4.20;;;2.58;;
15451;SDS011;7827;53.594;9.938;2023-04-24T05:42:47;4.00;;;2.20;;
15451;SDS011;7827;53.594;9.938;2023-04-24T05:45:15;3.20;;;2.47;;
15451;SDS011;7827;53.594;9.938;2023-04-24T05:47:44;3.85;;;2.35;;
15451;SDS011;7827;53.594;9.938;2023-04-24T05:50:13;3.47;;;2.08;;
15451;SDS011;7827;53.594;9.938;2023-04-24T05:52:41;2.78;;;2.33;;
15451;SDS011;7827;53.594;9.938;2023-04-24T05:55:23;4.63;;;2.13;;
15451;SDS011;7827;53.594;9.938;2023-04-24T05:57:53;2.92;;;2.35;;
15451;SDS011;7827;53.594;9.938;2023-04-24T06:00:22;2.20;;;1.95;;
15451;SDS011;7827;53.594;9.938;2023-04-24T06:02:59;2.80;;;2.22;;
15451;SDS011;7827;53.594;9.938;2023-04-24T06:05:30;2.92;;;2.25;;
15451;SDS011;7827;53.594;9.938;2023-04-24T06:08:01;2.80;;;2.50;;
15451;SDS011;7827;53.594;9.938;2023-04-24T06:10:36;3.60;;;2.40;;
15451;SDS011;7827;53.594;9.938;2023-04-24T06:13:07;3.35;;;2.22;;
15451;SDS011;7827;53.594;9.938;2023-04-24T06:15:38;5.40;;;2.60;;
15451;SDS011;7827;53.594;9.938;2023-04-24T06:18:10;2.63;;;2.08;;
15451;SDS011;7827;53.594;9.938;2023-04-24T06:20:40;2.90;;;2.30;;
15451;SDS011;7827;53.594;9.938;2023-04-24T06:23:09;3.85;;;2.70;;
15451;SDS011;7827;53.594;9.938;2023-04-24T06:25:39;2.50;;;2.30;;
15451;SDS011;7827;53.594;9.938;2023-04-24T06:28:07;2.28;;;2.08;;
15451;SDS011;7827;53.594;9.938;2023-04-24T06:30:35;2.35;;;2.10;;
15451;SDS011;7827;53.594;9.938;2023-04-24T06:33:04;2.50;;;2.30;;
15451;SDS011;7827;53.594;9.938;2023-04-24T06:35:47;2.53;;;2.30;;
15451;SDS011;7827;53.594;9.938;2023-04-24T06:38:15;2.67;;;2.40;;
15451;SDS011;7827;53.594;9.938;2023-04-24T06:40:45;3.05;;;2.53;;
15451;SDS011;7827;53.594;9.938;2023-04-24T06:43:13;2.58;;;2.38;;
15451;SDS011;7827;53.594;9.938;2023-04-24T06:45:42;2.42;;;2.22;;
15451;SDS011;7827;53.594;9.938;2023-04-24T06:48:10;3.50;;;2.40;;
15451;SDS011;7827;53.594;9.938;2023-04-24T06:50:39;2.53;;;2.30;;
15451;SDS011;7827;53.594;9.938;2023-04-24T06:53:07;2.63;;;2.42;;
15451;SDS011;7827;53.594;9.938;2023-04-24T06:55:37;2.60;;;2.40;;
15451;SDS011;7827;53.594;9.938;2023-04-24T06:58:07;5.50;;;2.42;;
15451;SDS011;7827;53.594;9.938;2023-04-24T07:00:36;3.17;;;2.88;;
15451;SDS011;7827;53.594;9.938;2023-04-24T07:03:05;3.35;;;2.80;;
15451;SDS011;7827;53.594;9.938;2023-04-24T07:05:33;4.25;;;2.70;;
15451;SDS011;7827;53.594;9.938;2023-04-24T07:08:04;3.38;;;2.80;;
15451;SDS011;7827;53.594;9.938;2023-04-24T07:10:33;3.20;;;2.90;;
15451;SDS011;7827;53.594;9.938;2023-04-24T07:13:02;4.03;;;3.40;;
15451;SDS011;7827;53.594;9.938;2023-04-24T07:15:31;3.53;;;3.22;;
15451;SDS011;7827;53.594;9.938;2023-04-24T07:18:00;4.05;;;3.65;;
15451;SDS011;7827;53.594;9.938;2023-04-24T07:20:31;5.22;;;4.47;;
15451;SDS011;7827;53.594;9.938;2023-04-24T07:23:00;4.97;;;4.07;;
15451;SDS011;7827;53.594;9.938;2023-04-24T07:25:29;5.10;;;4.40;;
15451;SDS011;7827;53.594;9.938;2023-04-24T07:27:57;5.13;;;3.78;;
15451;SDS011;7827;53.594;9.938;2023-04-24T07:30:26;4.10;;;3.75;;
15451;SDS011;7827;53.594;9.938;2023-04-24T07:32:56;5.97;;;4.22;;
15451;SDS011;7827;53.594;9.938;2023-04-24T07:35:25;4.82;;;4.43;;
15451;SDS011;7827;53.594;9.938;2023-04-24T07:37:54;5.10;;;4.60;;
15451;SDS011;7827;53.594;9.938;2023-04-24T07:40:22;4.80;;;4.30;;
15451;SDS011;7827;53.594;9.938;2023-04-24T07:42:51;6.13;;;4.50;;
15451;SDS011;7827;53.594;9.938;2023-04-24T07:45:19;4.65;;;4.25;;
15451;SDS011;7827;53.594;9.938;2023-04-24T07:47:49;5.65;;;4.18;;
15451;SDS011;7827;53.594;9.938;2023-04-24T07:50:20;5.82;;;4.53;;
15451;SDS011;7827;53.594;9.938;2023-04-24T07:52:49;4.97;;;4.32;;
15451;SDS011;7827;53.594;9.938;2023-04-24T07:55:17;5.22;;;4.55;;
15451;SDS011;7827;53.594;9.938;2023-04-24T07:57:49;4.80;;;4.38;;
15451;SDS011;7827;53.594;9.938;2023-04-24T08:00:18;5.53;;;4.70;;
15451;SDS011;7827;53.594;9.938;2023-04-24T08:02:47;5.80;;;5.20;;
15451;SDS011;7827;53.594;9.938;2023-04-24T08:05:16;8.77;;;5.50;;
15451;SDS011;7827;53.594;9.938;2023-04-24T08:07:46;6.32;;;5.57;;
15451;SDS011;7827;53.594;9.938;2023-04-24T08:10:16;5.63;;;5.13;;
15451;SDS011;7827;53.594;9.938;2023-04-24T08:12:45;5.78;;;5.28;;
15451;SDS011;7827;53.594;9.938;2023-04-24T08:15:13;6.93;;;5.32;;
15451;SDS011;7827;53.594;9.938;2023-04-24T08:17:42;5.82;;;5.30;;
15451;SDS011;7827;53.594;9.938;2023-04-24T08:20:10;6.75;;;5.45;;
15451;SDS011;7827;53.594;9.938;2023-04-24T08:22:40;8.73;;;5.85;;
15451;SDS011;7827;53.594;9.938;2023-04-24T08:25:11;7.18;;;6.57;;
15451;SDS011;7827;53.594;9.938;2023-04-24T08:27:39;6.80;;;6.20;;
15451;SDS011;7827;53.594;9.938;2023-04-24T08:30:08;8.98;;;6.32;;
15451;SDS011;7827;53.594;9.938;2023-04-24T08:32:37;10.43;;;6.55;;
15451;SDS011;7827;53.594;9.938;2023-04-24T08:35:06;6.97;;;6.22;;
15451;SDS011;7827;53.594;9.938;2023-04-24T08:37:36;7.35;;;6.70;;
15451;SDS011;7827;53.594;9.938;2023-04-24T08:40:06;7.03;;;6.43;;
15451;SDS011;7827;53.594;9.938;2023-04-24T08:42:41;6.18;;;5.57;;
15451;SDS011;7827;53.594;9.938;2023-04-24T08:45:12;7.00;;;6.30;;
15451;SDS011;7827;53.594;9.938;2023-04-24T08:47:41;6.35;;;5.78;;
15451;SDS011;7827;53.594;9.938;2023-04-24T08:50:11;6.10;;;5.40;;
15451;SDS011;7827;53.594;9.938;2023-04-24T08:52:39;7.30;;;6.60;;
15451;SDS011;7827;53.594;9.938;2023-04-24T08:55:11;7.10;;;6.00;;
15451;SDS011;7827;53.594;9.938;2023-04-24T08:57:41;7.43;;;6.72;;
15451;SDS011;7827;53.594;9.938;2023-04-24T09:00:11;7.78;;;7.07;;
15451;SDS011;7827;53.594;9.938;2023-04-24T09:02:42;8.45;;;7.60;;
15451;SDS011;7827;53.594;9.938;2023-04-24T09:05:11;8.73;;;7.93;;
15451;SDS011;7827;53.594;9.938;2023-04-24T09:07:41;8.55;;;7.75;;
15451;SDS011;7827;53.594;9.938;2023-04-24T09:10:18;8.10;;;7.30;;
15451;SDS011;7827;53.594;9.938;2023-04-24T09:12:48;8.50;;;7.70;;
15451;SDS011;7827;53.594;9.938;2023-04-24T09:15:18;9.10;;;8.20;;
15451;SDS011;7827;53.594;9.938;2023-04-24T09:17:47;10.20;;;7.80;;
15451;SDS011;7827;53.594;9.938;2023-04-24T09:20:17;8.52;;;7.63;;
15451;SDS011;7827;53.594;9.938;2023-04-24T09:22:45;9.07;;;7.78;;
15451;SDS011;7827;53.594;9.938;2023-04-24T09:25:14;8.68;;;7.80;;
15451;SDS011;7827;53.594;9.938;2023-04-24T09:27:44;8.30;;;7.50;;
15451;SDS011;7827;53.594;9.938;2023-04-24T09:30:13;8.80;;;7.10;;
15451;SDS011;7827;53.594;9.938;2023-04-24T09:32:48;8.82;;;7.95;;
15451;SDS011;7827;53.594;9.938;2023-04-24T09:35:16;8.27;;;7.20;;
15451;SDS011;7827;53.594;9.938;2023-04-24T09:37:45;8.98;;;7.40;;
15451;SDS011;7827;53.594;9.938;2023-04-24T09:40:16;7.95;;;7.25;;
15451;SDS011;7827;53.594;9.938;2023-04-24T09:42:52;7.70;;;7.00;;
15451;SDS011;7827;53.594;9.938;2023-04-24T09:45:23;8.13;;;7.30;;
15451;SDS011;7827;53.594;9.938;2023-04-24T09:47:55;8.18;;;7.38;;
15451;SDS011;7827;53.594;9.938;2023-04-24T09:50:24;9.07;;;7.63;;
15451;SDS011;7827;53.594;9.938;2023-04-24T09:52:57;8.52;;;7.70;;
15451;SDS011;7827;53.594;9.938;2023-04-24T09:55:29;8.77;;;7.97;;
15451;SDS011;7827;53.594;9.938;2023-04-24T09:58:00;9.68;;;7.80;;
15451;SDS011;7827;53.594;9.938;2023-04-24T10:00:32;10.60;;;8.45;;
15451;SDS011;7827;53.594;9.938;2023-04-24T10:03:01;9.52;;;8.63;;
15451;SDS011;7827;53.594;9.938;2023-04-24T10:05:32;10.40;;;8.43;;
15451;SDS011;7827;53.594;9.938;2023-04-24T10:08:03;14.63;;;9.65;;
15451;SDS011;7827;53.594;9.938;2023-04-24T10:10:36;10.75;;;9.70;;
15451;SDS011;7827;53.594;9.938;2023-04-24T10:13:09;10.90;;;9.80;;
15451;SDS011;7827;53.594;9.938;2023-04-24T10:15:40;11.68;;;10.40;;
15451;SDS011;7827;53.594;9.938;2023-04-24T10:18:09;12.80;;;11.07;;
15451;SDS011;7827;53.594;9.938;2023-04-24T10:20:39;14.25;;;11.35;;
15451;SDS011;7827;53.594;9.938;2023-04-24T10:23:08;12.38;;;11.07;;
15451;SDS011;7827;53.594;9.938;2023-04-24T10:25:38;13.60;;;11.32;;
15451;SDS011;7827;53.594;9.938;2023-04-24T10:28:07;14.20;;;11.32;;
15451;SDS011;7827;53.594;9.938;2023-04-24T10:30:38;13.40;;;11.52;;
15451;SDS011;7827;53.594;9.938;2023-04-24T10:33:10;12.82;;;11.43;;
15451;SDS011;7827;53.594;9.938;2023-04-24T10:35:40;14.30;;;11.75;;
15451;SDS011;7827;53.594;9.938;2023-04-24T10:38:14;12.55;;;10.52;;
15451;SDS011;7827;53.594;9.938;2023-04-24T10:40:51;13.23;;;11.93;;
15451;SDS011;7827;53.594;9.938;2023-04-24T10:43:35;16.58;;;12.27;;
15451;SDS011;7827;53.594;9.938;2023-04-24T10:46:04;14.55;;;13.05;;
15451;SDS011;7827;53.594;9.938;2023-04-24T10:48:34;14.75;;;12.52;;
15451;SDS011;7827;53.594;9.938;2023-04-24T10:51:03;17.38;;;13.35;;
15451;SDS011;7827;53.594;9.938;2023-04-24T10:53:31;14.98;;;13.00;;
15451;SDS011;7827;53.594;9.938;2023-04-24T10:56:03;14.57;;;13.05;;
15451;SDS011;7827;53.594;9.938;2023-04-24T10:58:39;17.98;;;11.70;;
15451;SDS011;7827;53.594;9.938;2023-04-24T11:01:23;13.73;;;12.32;;
15451;SDS011;7827;53.594;9.938;2023-04-24T11:03:54;16.08;;;11.43;;
15451;SDS011;7827;53.594;9.938;2023-04-24T11:06:30;15.15;;;11.82;;
15451;SDS011;7827;53.594;9.938;2023-04-24T11:09:02;12.98;;;10.68;;
15451;SDS011;7827;53.594;9.938;2023-04-24T11:11:33;13.57;;;11.05;;
15451;SDS011;7827;53.594;9.938;2023-04-24T11:14:08;13.45;;;11.90;;
15451;SDS011;7827;53.594;9.938;2023-04-24T11:16:39;12.40;;;11.10;;
15451;SDS011;7827;53.594;9.938;2023-04-24T11:19:18;16.48;;;11.75;;
15451;SDS011;7827;53.594;9.938;2023-04-24T11:21:55;13.70;;;12.10;;
15451;SDS011;7827;53.594;9.938;2023-04-24T11:24:29;13.98;;;11.60;;
15451;SDS011;7827;53.594;9.938;2023-04-24T11:27:01;14.43;;;10.88;;
15451;SDS011;7827;53.594;9.938;2023-04-24T11:29:46;14.75;;;11.63;;
15451;SDS011;7827;53.594;9.938;2023-04-24T11:32:23;12.18;;;10.73;;
15451;SDS011;7827;53.594;9.938;2023-04-24T11:34:55;12.60;;;10.57;;
15451;SDS011;7827;53.594;9.938;2023-04-24T11:37:26;12.15;;;10.13;;
15451;SDS011;7827;53.594;9.938;2023-04-24T11:39:56;12.40;;;10.65;;
15451;SDS011;7827;53.594;9.938;2023-04-24T11:42:28;12.65;;;10.75;;
15451;SDS011;7827;53.594;9.938;2023-04-24T11:45:06;13.02;;;9.93;;
15451;SDS011;7827;53.594;9.938;2023-04-24T11:47:37;12.65;;;10.13;;
15451;SDS011;7827;53.594;9.938;2023-04-24T11:50:06;11.90;;;10.63;;
15451;SDS011;7827;53.594;9.938;2023-04-24T11:52:38;13.05;;;10.48;;
15451;SDS011;7827;53.594;9.938;2023-04-24T11:55:12;12.02;;;10.80;;
15451;SDS011;7827;53.594;9.938;2023-04-24T11:57:54;12.00;;;10.70;;
15451;SDS011;7827;53.594;9.938;2023-04-24T12:00:26;10.88;;;9.77;;
15451;SDS011;7827;53.594;9.938;2023-04-24T12:03:03;11.60;;;10.40;;
15451;SDS011;7827;53.594;9.938;2023-04-24T12:05:34;10.15;;;9.15;;
15451;SDS011;7827;53.594;9.938;2023-04-24T12:08:02;13.73;;;8.98;;
15451;SDS011;7827;53.594;9.938;2023-04-24T12:10:32;8.98;;;8.05;;
15451;SDS011;7827;53.594;9.938;2023-04-24T12:13:01;8.57;;;7.78;;
15451;SDS011;7827;53.594;9.938;2023-04-24T12:15:31;10.07;;;8.60;;
15451;SDS011;7827;53.594;9.938;2023-04-24T12:18:00;9.70;;;8.05;;
15451;SDS011;7827;53.594;9.938;2023-04-24T12:20:29;8.70;;;7.68;;
15451;SDS011;7827;53.594;9.938;2023-04-24T12:23:00;9.88;;;8.55;;
15451;SDS011;7827;53.594;9.938;2023-04-24T12:25:29;9.80;;;8.50;;
15451;SDS011;7827;53.594;9.938;2023-04-24T12:28:08;9.20;;;8.35;;
15451;SDS011;7827;53.594;9.938;2023-04-24T12:30:41;12.32;;;8.98;;
15451;SDS011;7827;53.594;9.938;2023-04-24T12:33:12;9.73;;;8.75;;
15451;SDS011;7827;53.594;9.938;2023-04-24T12:35:40;9.63;;;8.63;;
15451;SDS011;7827;53.594;9.938;2023-04-24T12:38:09;10.13;;;8.40;;
15451;SDS011;7827;53.594;9.938;2023-04-24T12:40:39;12.95;;;8.70;;
15451;SDS011;7827;53.594;9.938;2023-04-24T12:43:14;13.57;;;9.45;;
15451;SDS011;7827;53.594;9.938;2023-04-24T12:45:47;13.95;;;8.93;;
15451;SDS011;7827;53.594;9.938;2023-04-24T12:48:15;10.15;;;9.15;;
15451;SDS011;7827;53.594;9.938;2023-04-24T12:50:44;9.70;;;8.70;;
15451;SDS011;7827;53.594;9.938;2023-04-24T12:53:13;10.10;;;9.10;;
15451;SDS011;7827;53.594;9.938;2023-04-24T12:55:42;10.88;;;8.63;;
15451;SDS011;7827;53.594;9.938;2023-04-24T12:58:13;9.90;;;8.90;;
15451;SDS011;7827;53.594;9.938;2023-04-24T13:00:41;12.00;;;9.40;;
15451;SDS011;7827;53.594;9.938;2023-04-24T13:03:13;9.85;;;8.80;;
15451;SDS011;7827;53.594;9.938;2023-04-24T13:05:43;13.50;;;8.73;;
15451;SDS011;7827;53.594;9.938;2023-04-24T13:08:11;9.82;;;8.43;;
15451;SDS011;7827;53.594;9.938;2023-04-24T13:10:40;9.65;;;8.63;;
15451;SDS011;7827;53.594;9.938;2023-04-24T13:13:08;8.77;;;7.88;;
15451;SDS011;7827;53.594;9.938;2023-04-24T13:15:37;10.35;;;8.68;;
15451;SDS011;7827;53.594;9.938;2023-04-24T13:18:05;9.45;;;8.30;;
15451;SDS011;7827;53.594;9.938;2023-04-24T13:20:35;8.43;;;7.60;;
15451;SDS011;7827;53.594;9.938;2023-04-24T13:23:03;8.35;;;7.55;;
15451;SDS011;7827;53.594;9.938;2023-04-24T13:25:34;9.10;;;7.45;;
15451;SDS011;7827;53.594;9.938;2023-04-24T13:28:05;7.57;;;6.85;;
15451;SDS011;7827;53.594;9.938;2023-04-24T13:30:33;7.82;;;6.95;;
15451;SDS011;7827;53.594;9.938;2023-04-24T13:33:01;9.38;;;7.25;;
15451;SDS011;7827;53.594;9.938;2023-04-24T13:35:30;8.55;;;7.75;;
15451;SDS011;7827;53.594;9.938;2023-04-24T13:38:00;7.25;;;6.55;;
15451;SDS011;7827;53.594;9.938;2023-04-24T13:40:32;7.55;;;6.72;;
15451;SDS011;7827;53.594;9.938;2023-04-24T13:43:01;8.70;;;7.00;;
15451;SDS011;7827;53.594;9.938;2023-04-24T13:45:30;7.75;;;6.97;;
15451;SDS011;7827;53.594;9.938;2023-04-24T13:47:58;9.15;;;7.63;;
15451;SDS011;7827;53.594;9.938;2023-04-24T13:50:28;7.90;;;7.10;;
15451;SDS011;7827;53.594;9.938;2023-04-24T13:52:56;7.68;;;6.97;;
15451;SDS011;7827;53.594;9.938;2023-04-24T13:55:29;8.32;;;7.10;;
15451;SDS011;7827;53.594;9.938;2023-04-24T13:57:57;11.13;;;7.80;;
15451;SDS011;7827;53.594;9.938;2023-04-24T14:00:27;8.07;;;7.38;;
15451;SDS011;7827;53.594;9.938;2023-04-24T14:02:55;7.70;;;6.95;;
15451;SDS011;7827;53.594;9.938;2023-04-24T14:05:24;8.30;;;7.60;;
15451;SDS011;7827;53.594;9.938;2023-04-24T14:07:52;8.05;;;7.30;;
15451;SDS011;7827;53.594;9.938;2023-04-24T14:10:21;8.18;;;7.43;;
15451;SDS011;7827;53.594;9.938;2023-04-24T14:12:50;8.00;;;7.20;;
15451;SDS011;7827;53.594;9.938;2023-04-24T14:15:19;9.00;;;7.60;;
15451;SDS011;7827;53.594;9.938;2023-04-24T14:17:47;7.50;;;6.80;;
15451;SDS011;7827;53.594;9.938;2023-04-24T14:20:16;10.57;;;6.97;;
15451;SDS011;7827;53.594;9.938;2023-04-24T14:22:44;7.97;;;7.28;;
15451;SDS011;7827;53.594;9.938;2023-04-24T14:25:13;8.52;;;7.72;;
15451;SDS011;7827;53.594;9.938;2023-04-24T14:27:41;7.72;;;7.03;;
15451;SDS011;7827;53.594;9.938;2023-04-24T14:30:11;9.18;;;8.10;;
15451;SDS011;7827;53.594;9.938;2023-04-24T14:32:41;9.48;;;8.43;;
15451;SDS011;7827;53.594;9.938;2023-04-24T14:35:10;10.70;;;9.48;;
15451;SDS011;7827;53.594;9.938;2023-04-24T14:37:38;12.43;;;11.13;;
15451;SDS011;7827;53.594;9.938;2023-04-24T14:40:07;12.98;;;11.68;;
15451;SDS011;7827;53.594;9.938;2023-04-24T14:42:57;15.05;;;12.25;;
15451;SDS011;7827;53.594;9.938;2023-04-24T14:45:27;14.23;;;12.73;;
15451;SDS011;7827;53.594;9.938;2023-04-24T14:47:55;14.55;;;13.13;;
15451;SDS011;7827;53.594;9.938;2023-04-24T14:50:25;20.25;;;14.10;;
15451;SDS011;7827;53.594;9.938;2023-04-24T14:52:54;15.57;;;13.95;;
15451;SDS011;7827;53.594;9.938;2023-04-24T14:55:24;15.45;;;13.85;;
15451;SDS011;7827;53.594;9.938;2023-04-24T14:57:53;19.33;;;16.35;;
15451;SDS011;7827;53.594;9.938;2023-04-24T15:00:21;18.77;;;15.00;;
15451;SDS011;7827;53.594;9.938;2023-04-24T15:02:52;16.73;;;14.20;;
15451;SDS011;7827;53.594;9.938;2023-04-24T15:05:22;11.27;;;10.18;;
15451;SDS011;7827;53.594;9.938;2023-04-24T15:07:51;13.95;;;10.55;;
15451;SDS011;7827;53.594;9.938;2023-04-24T15:10:20;13.65;;;10.23;;
15451;SDS011;7827;53.594;9.938;2023-04-24T15:12:49;14.65;;;10.43;;